Time;durP1;ratioP1;P1;durP2;ratioP2;P2;SDS_P1;SDS_P2;PMS_P1;PMS_P2;Temp;Humidity;BMP_temperature;BMP_pressure;BME280_temperature;BME280_humidity;BME280_pressure;Samples;Min_cycle;Max_cycle;Signal;HPM_P1;HPM_P2
2023/06/21 00:00:13;;;;;;;22.45;20.15;;;19.60;99.90;;;;;;5053820;28;20041;-65
2023/06/21 00:02:42;;;;;;;27.65;24.83;;;19.60;99.90;;;;;;5046495;28;20037;-65
2023/06/21 00:05:08;;;;;;;23.48;20.20;;;19.60;99.90;;;;;;5037379;28;20040;-65
2023/06/21 00:07:34;;;;;;;26.17;22.58;;;19.60;99.90;;;;;;5054753;28;20033;-65
2023/06/21 00:10:01;;;;;;;24.73;22.30;;;19.60;99.90;;;;;;5053813;28;20198;-65
2023/06/21 00:12:27;;;;;;;23.40;21.00;;;19.50;99.90;;;;;;5020226;28;20041;-65
2023/06/21 00:14:53;;;;;;;22.15;19.88;;;19.50;99.90;;;;;;5054495;28;20037;-65
2023/06/21 00:17:19;;;;;;;22.63;20.23;;;19.50;99.90;;;;;;5019628;28;20041;-65
2023/06/21 00:19:47;;;;;;;26.58;23.90;;;19.50;99.90;;;;;;5036790;28;20413;-65
2023/06/21 00:22:14;;;;;;;27.48;24.58;;;19.40;99.90;;;;;;5054708;28;20040;-65
2023/06/21 00:24:39;;;;;;;25.40;22.42;;;19.40;99.90;;;;;;5035609;28;20127;-65
2023/06/21 00:27:05;;;;;;;30.27;22.63;;;19.40;99.90;;;;;;5054602;28;20163;-65
2023/06/21 00:29:31;;;;;;;26.00;22.33;;;19.40;99.90;;;;;;5054262;28;20041;-65
2023/06/21 00:31:58;;;;;;;24.67;22.15;;;19.40;99.90;;;;;;5053665;28;20037;-65
2023/06/21 00:34:23;;;;;;;27.67;24.73;;;19.30;99.90;;;;;;5035759;28;20120;-65
2023/06/21 00:36:49;;;;;;;28.80;24.05;;;19.30;99.90;;;;;;5035309;28;20128;-65
2023/06/21 00:39:15;;;;;;;26.67;21.55;;;19.20;99.90;;;;;;5054185;28;20048;-67
2023/06/21 00:41:41;;;;;;;37.33;28.75;;;19.30;99.90;;;;;;5053999;28;20069;-67
2023/06/21 00:44:08;;;;;;;26.67;23.55;;;19.30;99.90;;;;;;5053755;28;20070;-67
2023/06/21 00:46:34;;;;;;;28.40;25.00;;;19.30;99.90;;;;;;5036214;28;20045;-67
2023/06/21 00:49:00;;;;;;;33.25;27.05;;;19.20;99.90;;;;;;5036015;28;20056;-67
2023/06/21 00:51:26;;;;;;;29.38;25.35;;;19.30;99.90;;;;;;5035071;28;20120;-67
2023/06/21 00:53:51;;;;;;;27.58;24.65;;;19.20;99.90;;;;;;5053853;28;20051;-67
2023/06/21 00:56:17;;;;;;;30.92;25.85;;;19.20;99.90;;;;;;5036088;28;20040;-67
2023/06/21 00:58:43;;;;;;;30.23;26.27;;;19.10;99.90;;;;;;5035229;28;20051;-67
2023/06/21 01:01:09;;;;;;;31.67;24.45;;;19.10;99.90;;;;;;5054082;28;20072;-67
2023/06/21 01:03:36;;;;;;;28.35;24.25;;;19.20;99.90;;;;;;5019300;28;20076;-66
2023/06/21 01:06:29;;;;;;;31.45;26.05;;;19.10;99.90;;;;;;5052863;28;20079;-66
2023/06/21 01:09:14;;;;;;;39.13;29.33;;;19.10;99.90;;;;;;5035742;28;20044;-66
2023/06/21 01:12:20;;;;;;;30.23;25.52;;;19.10;99.90;;;;;;5036036;28;20040;-66
2023/06/21 01:15:02;;;;;;;34.17;26.67;;;19.10;99.90;;;;;;5042736;28;20409;-67
2023/06/21 01:17:37;;;;;;;29.88;24.67;;;19.10;99.90;;;;;;5055315;28;20531;-67
2023/06/21 01:20:14;;;;;;;34.13;26.55;;;19.00;99.90;;;;;;5071050;28;20112;-67
2023/06/21 01:22:51;;;;;;;32.95;25.90;;;19.00;99.90;;;;;;5073202;28;20082;-67
2023/06/21 01:25:54;;;;;;;34.00;26.10;;;19.00;99.90;;;;;;5073235;28;20128;-67
2023/06/21 01:28:58;;;;;;;34.08;26.88;;;19.00;99.90;;;;;;5054611;28;20060;-67
2023/06/21 01:31:25;;;;;;;33.45;26.92;;;19.00;99.90;;;;;;5055304;28;20128;-67
2023/06/21 01:33:52;;;;;;;38.05;29.45;;;18.90;99.90;;;;;;5071668;28;20040;-67
2023/06/21 01:36:18;;;;;;;36.42;27.92;;;18.80;99.90;;;;;;5055332;28;20056;-67
2023/06/21 01:38:44;;;;;;;34.47;26.95;;;18.80;99.90;;;;;;5073065;28;20082;-67
2023/06/21 01:41:12;;;;;;;33.90;27.70;;;18.80;99.90;;;;;;5054913;28;20473;-66
2023/06/21 01:43:38;;;;;;;35.15;28.10;;;18.80;99.90;;;;;;5041245;28;20049;-67
2023/06/21 01:46:06;;;;;;;40.60;30.58;;;18.80;99.90;;;;;;5034323;28;20037;-67
2023/06/21 01:48:34;;;;;;;38.72;29.90;;;18.80;99.90;;;;;;5033926;28;20175;-67
2023/06/21 01:51:03;;;;;;;34.25;28.30;;;18.70;99.90;;;;;;5034834;28;20409;-67
2023/06/21 01:53:32;;;;;;;36.70;29.13;;;18.70;99.90;;;;;;5035119;28;20473;-67
2023/06/21 01:56:00;;;;;;;39.05;29.70;;;18.70;99.90;;;;;;5051814;28;20044;-67
2023/06/21 01:58:25;;;;;;;39.25;30.23;;;18.60;99.90;;;;;;5034755;28;20110;-67
2023/06/21 02:00:52;;;;;;;39.08;29.23;;;18.70;99.90;;;;;;5052603;28;20447;-67
2023/06/21 02:03:20;;;;;;;37.67;30.05;;;18.60;99.90;;;;;;5033680;28;20049;-67
2023/06/21 02:05:47;;;;;;;36.20;27.48;;;18.60;99.90;;;;;;5034839;28;20048;-67
2023/06/21 02:08:17;;;;;;;39.80;32.45;;;18.50;99.90;;;;;;5033817;28;20127;-67
2023/06/21 02:10:45;;;;;;;39.83;29.27;;;18.50;99.90;;;;;;5052431;28;20037;-67
2023/06/21 02:13:12;;;;;;;41.55;33.05;;;18.40;99.90;;;;;;5034555;28;20088;-67
2023/06/21 02:15:38;;;;;;;39.05;30.58;;;18.50;99.90;;;;;;5034234;28;20051;-67
2023/06/21 02:18:04;;;;;;;42.70;32.97;;;18.40;99.90;;;;;;5052286;28;20037;-67
2023/06/21 02:20:29;;;;;;;44.15;32.45;;;18.50;99.90;;;;;;5034453;28;20098;-67
2023/06/21 02:22:55;;;;;;;47.42;34.42;;;18.40;99.90;;;;;;5057053;28;20032;-67
2023/06/21 02:25:22;;;;;;;40.45;32.10;;;18.40;99.90;;;;;;5071789;28;20116;-64
2023/06/21 02:27:47;;;;;;;40.33;32.10;;;18.40;99.90;;;;;;5071993;28;20048;-65
2023/06/21 02:30:13;;;;;;;41.72;31.02;;;18.40;99.90;;;;;;5036993;28;20147;-64
2023/06/21 02:32:39;;;;;;;43.97;32.90;;;18.30;99.90;;;;;;5037476;28;20032;-64
2023/06/21 02:35:10;;;;;;;42.88;31.75;;;18.40;99.90;;;;;;5054340;28;20041;-65
2023/06/21 02:37:36;;;;;;;39.20;32.85;;;18.40;99.90;;;;;;5053577;28;20036;-64
2023/06/21 02:40:13;;;;;;;40.25;31.33;;;18.40;99.90;;;;;;5054062;28;20040;-65
2023/06/21 02:42:40;;;;;;;43.42;32.80;;;18.40;99.90;;;;;;5071767;28;20045;-64
2023/06/21 02:45:06;;;;;;;46.47;32.88;;;18.40;99.90;;;;;;5053842;28;20093;-64
2023/06/21 02:47:32;;;;;;;41.03;32.25;;;18.40;99.90;;;;;;5054025;28;20052;-64
2023/06/21 02:49:58;;;;;;;46.40;32.10;;;18.30;99.90;;;;;;5072032;28;20044;-64
2023/06/21 02:52:24;;;;;;;42.15;32.42;;;18.30;99.90;;;;;;5052679;28;20071;-65
2023/06/21 02:54:51;;;;;;;41.08;30.80;;;18.30;99.90;;;;;;5034087;28;20406;-64
2023/06/21 02:57:17;;;;;;;37.85;29.38;;;18.30;99.90;;;;;;5034129;28;20490;-64
2023/06/21 02:59:43;;;;;;;40.53;31.65;;;18.20;99.90;;;;;;5057525;28;20111;-64
2023/06/21 03:02:09;;;;;;;43.92;32.65;;;18.20;99.90;;;;;;5041098;28;20053;-64
2023/06/21 03:04:35;;;;;;;38.28;30.40;;;18.20;99.90;;;;;;5039726;28;20044;-64
2023/06/21 03:07:01;;;;;;;36.33;28.30;;;18.20;99.90;;;;;;5040602;28;20086;-64
2023/06/21 03:09:27;;;;;;;37.13;30.15;;;18.20;99.90;;;;;;5040512;28;20432;-64
2023/06/21 03:11:53;;;;;;;38.88;27.13;;;18.20;99.90;;;;;;5040068;28;20051;-64
2023/06/21 03:14:19;;;;;;;38.28;27.02;;;18.20;99.90;;;;;;5058030;28;20461;-64
2023/06/21 03:16:45;;;;;;;37.83;26.55;;;18.20;99.90;;;;;;5040620;28;20047;-64
2023/06/21 03:19:11;;;;;;;38.10;26.55;;;18.20;99.90;;;;;;5039935;28;20051;-64
2023/06/21 03:21:37;;;;;;;38.08;27.35;;;18.10;99.90;;;;;;5058368;28;20037;-64
2023/06/21 03:24:03;;;;;;;37.58;26.25;;;18.20;99.90;;;;;;5058010;28;20115;-64
2023/06/21 03:26:29;;;;;;;32.97;25.65;;;18.10;99.90;;;;;;5039815;28;20051;-64
2023/06/21 03:28:57;;;;;;;34.83;25.58;;;18.10;99.90;;;;;;5058089;28;20049;-65
2023/06/21 03:31:23;;;;;;;36.38;25.50;;;18.10;99.90;;;;;;5040191;28;20053;-64
2023/06/21 03:33:49;;;;;;;37.05;26.75;;;18.10;99.90;;;;;;5048178;28;20114;-64
2023/06/21 03:36:15;;;;;;;37.03;24.75;;;18.00;99.90;;;;;;5043586;28;20029;-64
2023/06/21 03:38:40;;;;;;;34.90;24.58;;;18.00;99.90;;;;;;5078166;28;20401;-64
2023/06/21 03:41:06;;;;;;;38.55;27.13;;;18.00;99.90;;;;;;5077819;28;20036;-64
2023/06/21 03:43:32;;;;;;;31.00;23.77;;;18.00;99.90;;;;;;5077438;28;20492;-64
2023/06/21 03:45:58;;;;;;;34.90;24.95;;;18.00;99.90;;;;;;5059917;28;20407;-64
2023/06/21 03:48:24;;;;;;;32.40;22.95;;;18.00;99.90;;;;;;5059431;28;20051;-64
2023/06/21 03:50:50;;;;;;;33.85;24.65;;;18.00;99.90;;;;;;5077998;28;20424;-64
2023/06/21 03:53:16;;;;;;;32.65;24.77;;;18.00;99.90;;;;;;5077643;28;20044;-64
2023/06/21 03:55:43;;;;;;;31.85;23.58;;;17.90;99.90;;;;;;5059286;28;20516;-64
2023/06/21 03:58:10;;;;;;;32.75;24.13;;;18.00;99.90;;;;;;5078229;28;20396;-64
2023/06/21 04:00:35;;;;;;;38.80;25.65;;;18.00;99.90;;;;;;5078014;28;20043;-64
2023/06/21 04:03:01;;;;;;;34.47;24.10;;;17.90;99.90;;;;;;5069443;28;20041;-64
2023/06/21 04:05:36;;;;;;;28.58;20.80;;;17.90;99.90;;;;;;5057946;28;20037;-64
2023/06/21 04:08:01;;;;;;;30.60;22.67;;;17.90;99.90;;;;;;5022882;28;20071;-64
2023/06/21 04:10:27;;;;;;;32.97;23.02;;;17.90;99.90;;;;;;5054880;28;20041;-64
2023/06/21 04:12:53;;;;;;;30.95;21.25;;;17.90;99.90;;;;;;5054768;28;20073;-64
2023/06/21 04:15:20;;;;;;;30.33;21.55;;;17.90;99.90;;;;;;5035744;28;20136;-64
2023/06/21 04:17:46;;;;;;;30.58;22.20;;;17.80;99.90;;;;;;5036836;28;20402;-64
2023/06/21 04:20:13;;;;;;;28.73;19.85;;;17.90;99.90;;;;;;5054895;28;20051;-64
2023/06/21 04:22:40;;;;;;;30.75;20.23;;;17.90;99.90;;;;;;5054194;28;20437;-64
2023/06/21 04:25:07;;;;;;;33.55;20.60;;;17.90;99.90;;;;;;5054868;28;20067;-64
2023/06/21 04:27:33;;;;;;;29.55;19.77;;;17.90;99.90;;;;;;5036907;28;20055;-64
2023/06/21 04:29:59;;;;;;;26.58;18.88;;;17.90;99.90;;;;;;5053440;28;20451;-64
2023/06/21 04:32:32;;;;;;;26.25;19.20;;;17.90;99.90;;;;;;5047085;28;20045;-64
2023/06/21 04:34:59;;;;;;;29.13;18.85;;;17.90;99.90;;;;;;5054147;28;20049;-64
2023/06/21 04:37:25;;;;;;;30.27;19.08;;;17.90;99.90;;;;;;5053487;28;20033;-64
2023/06/21 04:39:52;;;;;;;24.52;18.70;;;17.90;99.90;;;;;;5036363;28;20086;-64
2023/06/21 04:42:21;;;;;;;29.48;20.33;;;18.00;99.90;;;;;;5036154;28;20168;-64
2023/06/21 04:44:50;;;;;;;27.88;18.88;;;18.00;99.90;;;;;;5035384;28;20045;-64
2023/06/21 04:47:16;;;;;;;33.67;20.65;;;18.00;99.90;;;;;;5019730;28;20037;-64
2023/06/21 04:49:42;;;;;;;26.75;17.90;;;18.00;99.90;;;;;;5036399;28;20037;-64
2023/06/21 04:52:09;;;;;;;21.63;16.23;;;18.00;99.90;;;;;;5035534;28;20052;-64
2023/06/21 04:54:36;;;;;;;21.08;16.13;;;18.10;99.90;;;;;;5035916;28;20410;-64
2023/06/21 04:57:04;;;;;;;21.70;15.38;;;18.10;99.90;;;;;;5035288;28;20036;-64
2023/06/21 04:59:30;;;;;;;22.92;17.25;;;18.10;99.90;;;;;;5035980;28;20029;-64
2023/06/21 05:01:56;;;;;;;24.77;16.90;;;18.20;99.90;;;;;;5044888;28;20093;-64
2023/06/21 05:04:22;;;;;;;22.73;16.02;;;18.20;99.90;;;;;;5053043;28;20514;-64
2023/06/21 05:06:47;;;;;;;22.35;15.48;;;18.20;99.90;;;;;;5049002;28;20052;-64
2023/06/21 05:09:13;;;;;;;21.42;14.35;;;18.20;99.90;;;;;;5038261;28;20095;-64
2023/06/21 05:11:39;;;;;;;20.58;14.82;;;18.20;99.90;;;;;;5028273;28;20044;-64
2023/06/21 05:14:05;;;;;;;21.15;14.30;;;18.30;99.90;;;;;;5061836;28;20044;-64
2023/06/21 05:16:31;;;;;;;20.00;14.77;;;18.30;99.90;;;;;;5035836;28;20033;-64
2023/06/21 05:18:57;;;;;;;20.27;13.73;;;18.40;99.90;;;;;;5052284;28;20033;-64
2023/06/21 05:21:22;;;;;;;24.17;14.73;;;18.40;99.90;;;;;;5035526;28;20041;-64
2023/06/21 05:23:48;;;;;;;20.38;15.43;;;18.50;99.90;;;;;;5064461;28;20398;-64
2023/06/21 05:26:14;;;;;;;22.05;15.50;;;18.50;99.90;;;;;;5052599;28;20064;-64
2023/06/21 05:28:39;;;;;;;22.83;15.00;;;18.60;99.90;;;;;;5043847;28;20045;-64
2023/06/21 05:31:05;;;;;;;22.48;15.68;;;18.60;99.90;;;;;;5055485;28;20040;-64
2023/06/21 05:33:31;;;;;;;22.52;14.15;;;18.60;99.90;;;;;;5040767;28;20410;-64
2023/06/21 05:35:56;;;;;;;20.58;14.18;;;18.70;99.90;;;;;;5020972;28;20383;-64
2023/06/21 05:38:22;;;;;;;20.98;13.60;;;18.70;99.90;;;;;;5058416;28;20044;-64
2023/06/21 05:40:47;;;;;;;19.23;14.38;;;18.70;99.90;;;;;;5035155;28;20052;-64
2023/06/21 05:43:16;;;;;;;21.20;14.52;;;18.70;99.90;;;;;;5052554;28;20051;-64
2023/06/21 05:45:42;;;;;;;19.85;15.63;;;18.80;99.90;;;;;;5052726;28;20056;-64
2023/06/21 05:48:07;;;;;;;23.27;16.27;;;18.80;99.90;;;;;;5034532;28;20040;-64
2023/06/21 05:50:33;;;;;;;22.30;16.08;;;18.80;99.90;;;;;;5053154;28;20039;-64
2023/06/21 05:52:59;;;;;;;22.20;16.35;;;18.80;99.90;;;;;;5035198;28;20056;-64
2023/06/21 05:55:25;;;;;;;24.98;17.00;;;18.80;99.90;;;;;;5033708;28;20037;-64
2023/06/21 05:57:50;;;;;;;26.10;16.50;;;18.90;99.90;;;;;;5035054;28;20124;-64
2023/06/21 06:00:17;;;;;;;22.00;17.52;;;18.90;99.90;;;;;;5063608;28;20075;-64
2023/06/21 06:02:43;;;;;;;21.98;18.60;;;19.00;99.90;;;;;;5050638;28;20044;-67
2023/06/21 06:05:10;;;;;;;25.02;17.77;;;19.10;99.90;;;;;;5052033;28;20079;-67
2023/06/21 06:07:35;;;;;;;22.35;17.60;;;19.20;99.90;;;;;;5056763;28;20086;-67
2023/06/21 06:10:01;;;;;;;23.92;18.48;;;19.30;99.90;;;;;;5049017;28;20461;-67
2023/06/21 06:12:27;;;;;;;20.88;16.38;;;19.40;99.90;;;;;;5060653;28;20453;-67
2023/06/21 06:14:53;;;;;;;24.23;17.60;;;19.50;99.90;;;;;;5049051;28;20083;-67
2023/06/21 06:17:19;;;;;;;19.30;15.88;;;19.60;99.90;;;;;;5026583;28;20087;-66
2023/06/21 06:19:44;;;;;;;17.92;14.85;;;19.80;99.90;;;;;;5033028;28;20041;-65
2023/06/21 06:22:11;;;;;;;16.65;14.07;;;19.90;99.90;;;;;;5062857;28;20440;-65
2023/06/21 06:24:37;;;;;;;18.38;13.20;;;19.90;99.90;;;;;;5057185;28;20400;-65
2023/06/21 06:27:03;;;;;;;16.70;12.30;;;20.00;99.90;;;;;;5037497;28;20041;-65
2023/06/21 06:29:30;;;;;;;18.63;13.35;;;20.00;99.90;;;;;;5048854;28;20048;-67
2023/06/21 06:31:56;;;;;;;16.33;12.30;;;20.00;99.90;;;;;;5031910;28;20079;-65
2023/06/21 06:34:22;;;;;;;16.27;13.10;;;19.90;99.90;;;;;;5038699;28;20425;-66
2023/06/21 06:36:48;;;;;;;15.80;12.32;;;20.00;99.90;;;;;;5046301;28;20193;-66
2023/06/21 06:39:14;;;;;;;16.73;10.98;;;20.10;99.90;;;;;;5051365;28;20457;-65
2023/06/21 06:41:40;;;;;;;13.63;10.30;;;20.20;99.90;;;;;;5032424;28;20494;-65
2023/06/21 06:44:05;;;;;;;11.93;9.88;;;20.30;99.90;;;;;;5030911;28;20800;-65
2023/06/21 06:46:31;;;;;;;15.43;10.65;;;20.30;99.90;;;;;;5060902;28;20036;-66
2023/06/21 06:48:58;;;;;;;11.55;8.98;;;20.40;99.90;;;;;;5038425;28;20055;-66
2023/06/21 06:51:24;;;;;;;14.30;10.45;;;20.40;99.90;;;;;;5054270;28;20194;-65
2023/06/21 06:53:49;;;;;;;16.42;10.63;;;20.50;99.90;;;;;;5038989;28;20040;-66
2023/06/21 06:56:15;;;;;;;12.00;9.00;;;20.50;99.90;;;;;;5025653;28;20358;-66
2023/06/21 06:58:41;;;;;;;12.45;9.18;;;20.40;99.90;;;;;;5049267;28;20051;-65
2023/06/21 07:01:06;;;;;;;11.40;8.38;;;20.40;99.90;;;;;;5041033;28;20028;-66
2023/06/21 07:03:33;;;;;;;10.73;7.93;;;20.50;99.90;;;;;;5050793;28;20112;-65
2023/06/21 07:05:58;;;;;;;12.27;8.52;;;20.50;99.90;;;;;;5032698;28;20068;-65
2023/06/21 07:08:24;;;;;;;12.40;7.70;;;20.50;99.90;;;;;;5048658;28;20102;-65
2023/06/21 07:10:50;;;;;;;12.88;7.30;;;20.50;99.90;;;;;;5030547;28;20056;-65
2023/06/21 07:13:17;;;;;;;12.25;7.45;;;20.50;99.90;;;;;;5038360;28;20045;-65
2023/06/21 07:15:43;;;;;;;13.88;7.78;;;20.50;99.90;;;;;;5048906;28;20112;-65
2023/06/21 07:18:10;;;;;;;12.63;8.55;;;20.50;99.90;;;;;;5044688;28;20135;-65
2023/06/21 07:20:41;;;;;;;12.20;7.68;;;20.60;99.90;;;;;;5037190;28;20044;-65
2023/06/21 07:23:07;;;;;;;13.70;9.43;;;20.70;99.90;;;;;;5052824;28;20474;-65
2023/06/21 07:25:32;;;;;;;11.60;8.90;;;20.60;99.90;;;;;;5063864;28;20075;-65
2023/06/21 07:27:58;;;;;;;10.52;8.10;;;20.70;99.90;;;;;;5044010;28;20114;-66
2023/06/21 07:30:24;;;;;;;11.45;8.07;;;20.80;99.90;;;;;;5047266;28;20129;-65
2023/06/21 07:32:50;;;;;;;12.82;9.25;;;21.00;99.90;;;;;;5050568;28;20036;-66
2023/06/21 07:35:16;;;;;;;9.45;6.85;;;21.10;99.90;;;;;;5031081;28;20124;-65
2023/06/21 07:37:42;;;;;;;12.02;7.25;;;21.10;99.90;;;;;;5032637;28;20128;-65
2023/06/21 07:40:09;;;;;;;12.30;7.78;;;21.10;99.90;;;;;;5031712;28;20037;-66
2023/06/21 07:42:35;;;;;;;9.73;6.57;;;21.00;99.90;;;;;;5049447;28;20401;-65
2023/06/21 07:45:00;;;;;;;9.32;6.63;;;21.00;99.90;;;;;;5033708;28;20041;-66
2023/06/21 07:47:27;;;;;;;8.38;6.13;;;21.00;99.90;;;;;;5049423;28;20045;-65
2023/06/21 07:49:53;;;;;;;9.60;7.28;;;21.10;99.90;;;;;;5051497;28;20064;-66
2023/06/21 07:52:18;;;;;;;9.90;7.47;;;21.10;99.90;;;;;;5039591;28;20048;-65
2023/06/21 07:54:47;;;;;;;10.13;7.25;;;21.10;99.90;;;;;;5038950;28;20378;-65
2023/06/21 07:57:14;;;;;;;10.68;7.05;;;21.10;99.90;;;;;;5047330;28;20044;-66
2023/06/21 07:59:40;;;;;;;11.63;6.80;;;21.10;99.90;;;;;;5045835;28;20102;-66
2023/06/21 08:02:06;;;;;;;8.43;5.88;;;21.20;99.90;;;;;;5037520;28;20040;-65
2023/06/21 08:04:31;;;;;;;10.50;6.95;;;21.30;99.90;;;;;;5033162;28;20048;-66
2023/06/21 08:06:57;;;;;;;9.05;6.68;;;21.30;99.90;;;;;;5038632;28;20501;-66
2023/06/21 08:09:23;;;;;;;14.00;7.75;;;21.40;99.90;;;;;;5051844;28;20075;-66
2023/06/21 08:11:48;;;;;;;11.32;7.63;;;21.50;99.90;;;;;;5058185;28;20105;-65
2023/06/21 08:14:14;;;;;;;13.13;7.25;;;21.50;99.90;;;;;;5063281;28;20799;-65
2023/06/21 08:16:40;;;;;;;11.90;7.35;;;21.60;99.90;;;;;;5041700;28;20037;-65
2023/06/21 08:19:06;;;;;;;12.05;6.63;;;21.70;99.90;;;;;;5047392;28;20095;-66
2023/06/21 08:21:32;;;;;;;11.00;6.60;;;21.80;99.90;;;;;;5039191;28;20139;-65
2023/06/21 08:23:58;;;;;;;9.88;5.95;;;21.90;99.90;;;;;;5051944;28;20128;-65
2023/06/21 08:26:23;;;;;;;8.95;5.68;;;21.90;99.90;;;;;;5056906;28;20043;-65
2023/06/21 08:28:49;;;;;;;9.70;6.57;;;22.00;99.90;;;;;;5055458;28;20485;-66
2023/06/21 08:31:15;;;;;;;9.55;6.60;;;22.00;99.90;;;;;;5064979;28;20052;-64
2023/06/21 08:33:40;;;;;;;10.55;6.35;;;22.10;99.90;;;;;;5020093;28;20432;-65
2023/06/21 08:36:06;;;;;;;9.68;5.90;;;22.20;99.90;;;;;;5059903;28;20409;-65
2023/06/21 08:38:33;;;;;;;10.50;6.57;;;22.30;99.90;;;;;;5061103;28;20049;-65
2023/06/21 08:41:03;;;;;;;9.15;5.65;;;22.20;99.90;;;;;;5057866;28;20036;-65
2023/06/21 08:43:29;;;;;;;9.90;5.95;;;22.30;99.90;;;;;;5062982;28;20385;-65
2023/06/21 08:45:56;;;;;;;11.00;6.68;;;22.40;99.90;;;;;;5056800;28;20055;-65
2023/06/21 08:48:29;;;;;;;10.38;6.25;;;22.40;99.90;;;;;;5061241;28;20064;-65
2023/06/21 08:50:55;;;;;;;9.68;6.35;;;22.60;99.90;;;;;;5053188;28;20095;-65
2023/06/21 08:53:31;;;;;;;10.45;7.07;;;22.60;99.90;;;;;;5036757;28;20466;-65
2023/06/21 08:56:03;;;;;;;10.10;7.10;;;22.70;99.90;;;;;;5053474;28;20516;-64
2023/06/21 08:58:35;;;;;;;11.30;7.93;;;22.80;99.90;;;;;;5064493;28;20032;-65
2023/06/21 09:01:03;;;;;;;10.52;7.65;;;22.90;99.90;;;;;;5062286;28;20033;-63
2023/06/21 09:03:36;;;;;;;9.68;6.50;;;22.90;99.90;;;;;;5035297;28;20037;-64
2023/06/21 09:06:15;;;;;;;11.85;7.60;;;23.00;99.90;;;;;;5036093;28;20094;-62
2023/06/21 09:08:41;;;;;;;9.40;6.93;;;23.00;99.90;;;;;;5053814;28;20032;-62
2023/06/21 09:11:09;;;;;;;9.98;6.93;;;23.00;99.90;;;;;;5053503;28;20033;-62
2023/06/21 09:13:37;;;;;;;9.57;6.57;;;23.20;99.90;;;;;;5052199;28;20120;-63
2023/06/21 09:16:03;;;;;;;8.63;6.43;;;23.20;99.90;;;;;;5053534;28;20483;-62
2023/06/21 09:18:35;;;;;;;8.00;6.30;;;23.30;99.90;;;;;;5034941;28;20536;-65
2023/06/21 09:21:02;;;;;;;9.38;6.47;;;23.40;99.90;;;;;;5053497;28;20083;-65
2023/06/21 09:23:28;;;;;;;10.00;7.13;;;23.50;99.90;;;;;;5035496;28;20055;-65
2023/06/21 09:25:55;;;;;;;12.02;7.57;;;23.70;99.90;;;;;;5046650;28;20089;-65
2023/06/21 09:28:22;;;;;;;9.52;8.10;;;23.60;99.90;;;;;;5053968;28;20067;-66
2023/06/21 09:30:47;;;;;;;10.35;7.40;;;23.40;99.90;;;;;;5084904;28;20052;-66
2023/06/21 09:33:15;;;;;;;9.18;7.20;;;23.50;99.90;;;;;;5060111;28;20057;-66
2023/06/21 09:35:42;;;;;;;12.27;8.10;;;23.50;99.90;;;;;;5045871;28;20052;-66
2023/06/21 09:38:24;;;;;;;10.38;7.28;;;23.60;99.90;;;;;;5055762;28;20362;-66
2023/06/21 09:40:50;;;;;;;10.57;7.97;;;23.60;99.90;;;;;;5052953;28;20044;-66
2023/06/21 09:43:22;;;;;;;9.00;6.80;;;23.50;99.90;;;;;;5063815;28;20029;-66
2023/06/21 09:45:59;;;;;;;11.55;7.35;;;23.50;99.90;;;;;;5045686;28;20080;-66
2023/06/21 09:48:25;;;;;;;9.50;7.00;;;23.70;99.90;;;;;;5072446;28;20044;-67
2023/06/21 09:51:03;;;;;;;9.52;6.60;;;23.80;99.90;;;;;;5038059;28;20040;-67
2023/06/21 09:53:28;;;;;;;8.13;5.22;;;23.90;99.90;;;;;;5046206;28;20055;-66
2023/06/21 09:56:00;;;;;;;10.55;6.90;;;24.00;99.90;;;;;;5046193;28;20048;-66
2023/06/21 09:58:26;;;;;;;8.95;6.30;;;24.20;99.90;;;;;;5072456;28;20045;-66
2023/06/21 10:00:52;;;;;;;8.35;5.30;;;24.30;99.90;;;;;;5063421;28;20107;-66
2023/06/21 10:03:28;;;;;;;10.07;5.40;;;24.30;99.90;;;;;;5034741;28;20541;-66
2023/06/21 10:05:59;;;;;;;7.25;4.82;;;24.40;99.90;;;;;;5033081;28;20110;-66
2023/06/21 10:08:27;;;;;;;7.78;5.25;;;24.30;99.90;;;;;;5059882;28;20055;-66
2023/06/21 10:10:54;;;;;;;8.63;5.40;;;24.30;99.90;;;;;;5050319;28;20540;-66
2023/06/21 10:13:38;;;;;;;8.88;5.45;;;24.30;99.90;;;;;;5052223;28;20044;-66
2023/06/21 10:16:04;;;;;;;9.23;6.15;;;24.50;99.90;;;;;;5029836;28;20068;-66
2023/06/21 10:18:31;;;;;;;8.85;5.80;;;24.60;99.90;;;;;;5072251;28;20029;-66
2023/06/21 10:21:00;;;;;;;8.82;5.55;;;24.60;99.90;;;;;;5065489;28;20044;-68
2023/06/21 10:23:30;;;;;;;9.23;5.90;;;24.40;99.90;;;;;;5046868;28;20037;-64
2023/06/21 10:26:00;;;;;;;9.32;6.07;;;24.30;99.90;;;;;;5048460;28;20073;-65
2023/06/21 10:28:30;;;;;;;7.85;6.10;;;24.20;99.90;;;;;;5034162;28;20053;-64
2023/06/21 10:30:56;;;;;;;12.20;5.50;;;24.10;99.90;;;;;;5058835;28;20375;-65
2023/06/21 10:33:23;;;;;;;7.55;5.78;;;24.00;99.90;;;;;;5071241;28;20044;-66
2023/06/21 10:35:53;;;;;;;10.10;6.68;;;24.10;99.90;;;;;;5053770;28;20109;-66
2023/06/21 10:38:36;;;;;;;9.32;6.03;;;24.30;99.90;;;;;;5072148;28;20047;-65
2023/06/21 10:41:04;;;;;;;7.60;5.22;;;24.60;99.90;;;;;;5054320;28;20090;-66
2023/06/21 10:43:31;;;;;;;9.35;5.90;;;24.90;99.90;;;;;;5036565;28;20485;-66
2023/06/21 10:45:57;;;;;;;9.05;5.03;;;25.20;99.90;;;;;;5054161;28;20040;-66
2023/06/21 10:48:25;;;;;;;7.45;5.50;;;25.40;99.90;;;;;;5053999;28;20486;-66
2023/06/21 10:50:51;;;;;;;8.60;6.45;;;25.20;99.90;;;;;;5071283;28;20052;-66
2023/06/21 10:53:19;;;;;;;10.02;6.40;;;24.90;99.90;;;;;;5053921;28;20119;-66
2023/06/21 10:55:46;;;;;;;9.40;6.95;;;24.70;99.90;;;;;;5053079;28;20121;-66
2023/06/21 10:58:13;;;;;;;8.63;6.57;;;24.70;99.90;;;;;;5054443;28;20424;-66
2023/06/21 11:00:43;;;;;;;11.63;7.45;;;24.60;99.90;;;;;;5054097;28;20044;-66
2023/06/21 11:03:12;;;;;;;11.38;7.82;;;24.50;99.90;;;;;;5053553;28;20044;-66
2023/06/21 11:05:39;;;;;;;12.43;8.85;;;24.50;99.90;;;;;;5072224;28;20044;-67
2023/06/21 11:08:06;;;;;;;11.15;8.40;;;24.30;99.90;;;;;;5054196;28;20033;-66
2023/06/21 11:10:49;;;;;;;13.32;8.50;;;24.10;99.90;;;;;;5052951;28;20040;-66
2023/06/21 11:13:16;;;;;;;11.23;8.52;;;24.00;99.90;;;;;;5071976;28;20076;-66
2023/06/21 11:15:45;;;;;;;10.90;7.90;;;24.20;99.90;;;;;;5071717;28;20033;-66
2023/06/21 11:18:19;;;;;;;10.10;8.13;;;24.30;99.90;;;;;;5053603;28;20180;-65
2023/06/21 11:20:49;;;;;;;12.55;9.23;;;24.50;99.90;;;;;;5057646;28;20036;-66
2023/06/21 11:23:21;;;;;;;13.80;11.18;;;24.60;99.90;;;;;;5057642;28;20037;-66
2023/06/21 11:25:52;;;;;;;15.13;12.00;;;24.80;99.90;;;;;;5075120;28;20051;-66
2023/06/21 11:28:18;;;;;;;11.15;9.45;;;24.70;99.90;;;;;;5057614;28;20056;-66
2023/06/21 11:31:07;;;;;;;12.35;9.48;;;24.60;99.90;;;;;;5057632;28;20044;-66
2023/06/21 11:33:49;;;;;;;15.13;11.63;;;24.70;99.90;;;;;;5040926;28;20123;-66
2023/06/21 11:36:18;;;;;;;12.02;10.82;;;24.80;99.90;;;;;;5040697;28;20036;-66
2023/06/21 11:38:57;;;;;;;12.60;11.30;;;24.80;99.90;;;;;;5056894;28;20032;-66
2023/06/21 11:41:40;;;;;;;14.18;10.25;;;24.80;99.90;;;;;;5040835;28;20047;-66
2023/06/21 11:44:20;;;;;;;13.55;11.35;;;24.70;99.90;;;;;;5057609;28;20047;-66
2023/06/21 11:46:49;;;;;;;13.48;11.15;;;24.60;99.90;;;;;;5056598;28;20041;-66
2023/06/21 11:49:15;;;;;;;12.43;10.30;;;24.50;99.90;;;;;;5075345;28;20045;-66
2023/06/21 11:51:51;;;;;;;10.38;9.05;;;24.50;99.90;;;;;;5075134;28;20028;-66
2023/06/21 11:54:35;;;;;;;11.57;9.38;;;24.60;99.90;;;;;;5056377;28;20040;-67
2023/06/21 11:57:06;;;;;;;11.02;8.48;;;24.60;99.90;;;;;;5057259;28;20059;-66
2023/06/21 11:59:33;;;;;;;9.80;8.10;;;24.70;99.90;;;;;;5056231;28;20040;-66
2023/06/21 12:02:16;;;;;;;8.85;6.32;;;24.90;99.90;;;;;;5057464;28;20071;-66
2023/06/21 12:04:43;;;;;;;10.57;6.95;;;25.30;99.90;;;;;;5040386;28;20083;-66
2023/06/21 12:07:09;;;;;;;8.98;6.40;;;25.50;99.90;;;;;;5040029;28;20128;-66
2023/06/21 12:09:37;;;;;;;8.95;6.20;;;25.50;99.90;;;;;;5074879;28;20393;-64
2023/06/21 12:12:06;;;;;;;10.32;6.50;;;25.80;99.90;;;;;;5056889;28;20045;-66
2023/06/21 12:14:32;;;;;;;9.18;5.50;;;26.00;99.90;;;;;;5055977;28;20489;-66
2023/06/21 12:17:00;;;;;;;7.97;5.63;;;26.10;99.20;;;;;;5074807;28;20029;-66
2023/06/21 12:19:25;;;;;;;8.45;5.32;;;26.30;98.60;;;;;;5056639;28;20167;-66
2023/06/21 12:21:57;;;;;;;9.02;6.68;;;26.40;98.00;;;;;;5073942;28;20506;-66
2023/06/21 12:24:27;;;;;;;10.50;8.40;;;26.40;98.00;;;;;;5074726;28;20044;-66
2023/06/21 12:26:55;;;;;;;12.00;7.70;;;26.20;97.90;;;;;;5039860;28;20040;-65
2023/06/21 12:29:20;;;;;;;12.25;8.80;;;26.10;98.70;;;;;;5055600;28;20135;-65
2023/06/21 12:31:46;;;;;;;11.65;9.25;;;25.90;99.90;;;;;;5055783;28;20186;-66
2023/06/21 12:34:16;;;;;;;11.07;9.40;;;26.00;99.90;;;;;;5055932;28;20405;-66
2023/06/21 12:36:45;;;;;;;17.25;13.73;;;26.30;99.90;;;;;;5074501;28;20044;-65